Saga Sapphire — 9HOF8 — position and weather

sailwx.info

Track history (hours):
 
Tides and Currents Weather Stations Pressure Air Temp Water Temp Dewpoint Dewpoint Depression Visibility Wind Speed Wind Dir Waves Ship Positions

Saga Sapphire

Last reported at 2014-Dec-03 13:30 UTC. Time now 2014-Dec-19 04:34 UTC.
Position N 51°54' E 004°23'.
Warning: this ship's position is 15 days out of date.

Length 200 m; draft 8.3 m.

Type: Passenger vessel. MMSI: 256208000.

Date/timePositionNaut miles runAvg speedWind from/ knotsBaromVisibWave heightAir tempDewpointWater temp
2014-Dec-03 13:30N 51°54' E 004°23'0 0.0
2014-Dec-03 12:30N 51°54' E 004°23'0 0.0
2014-Dec-03 11:24N 51°54' E 004°23'0 0.0
2014-Dec-03 10:30N 51°54' E 004°23'0 0.0
2014-Dec-03 09:30N 51°54' E 004°23'0 0.0
2014-Dec-03 08:30N 51°54' E 004°23'0 0.0
2014-Dec-03 07:18N 51°54' E 004°23'0 0.0
2014-Dec-03 06:30N 51°54' E 004°23'0 0.0
2014-Dec-03 05:30N 51°54' E 004°23'0 0.0
2014-Dec-03 04:30N 51°54' E 004°23'0 0.0
2014-Dec-03 03:30N 51°54' E 004°23'0 0.0
2014-Dec-03 02:30N 51°54' E 004°23'0 0.0
2014-Dec-03 01:30N 51°54' E 004°23'0 0.0
2014-Dec-03 00:30N 51°54' E 004°23'0 0.0
2014-Dec-02 23:30N 51°54' E 004°23'0 0.0
2014-Dec-02 22:30N 51°54' E 004°23'0 0.0
2014-Dec-02 21:30N 51°54' E 004°23'0 0.0
2014-Dec-02 20:30N 51°54' E 004°23'0 0.0
2014-Dec-02 19:30N 51°54' E 004°23'0 0.0
2014-Dec-02 18:30N 51°54' E 004°23'0 0.0
2014-Dec-02 17:30N 51°54' E 004°23'0 0.0
2014-Dec-02 15:30N 51°54' E 004°23'0 0.0
2014-Dec-02 14:30N 51°54' E 004°23'0 0.0
2014-Dec-02 13:30N 51°54' E 004°23'0 0.0
2014-Dec-02 12:30N 51°54' E 004°23'0 0.0
2014-Dec-02 11:30N 51°54' E 004°23'0 0.0
2014-Dec-02 10:30N 51°54' E 004°23'0 0.0
2014-Dec-02 09:30N 51°54' E 004°23'0 0.0
2014-Dec-02 08:30N 51°54' E 004°23'0 0.0
2014-Dec-02 07:30N 51°54' E 004°23'0 0.0
2014-Dec-02 06:30N 51°54' E 004°23'0 0.0
2014-Dec-02 05:30N 51°54' E 004°23'0 0.0
2014-Dec-02 04:30N 51°54' E 004°23'0 0.0
2014-Dec-02 03:30N 51°54' E 004°23'0 0.0
2014-Dec-02 02:30N 51°54' E 004°23'0 0.0
2014-Dec-02 01:30N 51°54' E 004°23'0 0.0
2014-Dec-02 00:30N 51°54' E 004°23'0 0.0
2014-Dec-01 23:30N 51°54' E 004°23'0 0.0
2014-Dec-01 22:30N 51°54' E 004°23'0 0.0
2014-Dec-01 21:33N 51°54' E 004°23'0 0.0
2014-Dec-01 20:33N 51°54' E 004°23'0 0.0
2014-Dec-01 19:33N 51°54' E 004°23'0 0.0
2014-Dec-01 18:33N 51°54' E 004°23'0 0.0
2014-Dec-01 17:33N 51°54' E 004°23'0 0.0
2014-Dec-01 16:33N 51°54' E 004°23'0 0.0
2014-Dec-01 15:33N 51°54' E 004°23'0 0.0
2014-Dec-01 14:33N 51°54' E 004°23'0 0.0
2014-Dec-01 13:33N 51°54' E 004°23'0 0.0
2014-Dec-01 12:33N 51°54' E 004°23'0 0.0
2014-Dec-01 11:33N 51°54' E 004°23'0 0.0
2014-Dec-01 10:33N 51°54' E 004°23'0 0.0
2014-Dec-01 09:33N 51°54' E 004°23'0 0.0
2014-Dec-01 08:33N 51°54' E 004°23'0 0.2
2014-Dec-01 07:33N 51°54' E 004°23'6 6.0
2014-Dec-01 06:33N 51°56' E 004°14'1010.3
2014-Dec-01 05:33N 52°00' E 003°58'8 7.8
2014-Dec-01 04:33N 52°01' E 003°46'10 9.7
2014-Dec-01 03:33N 51°57' E 003°31'9 9.4
2014-Dec-01 02:33N 51°54' E 003°17'10 9.2
2014-Dec-01 01:27N 51°51' E 003°01'10 9.4
2014-Dec-01 00:21N 51°48' E 002°45'910.1
2014-Nov-30 23:25N 51°43' E 002°32'910.9
2014-Nov-30 22:33N 51°36' E 002°22'1111.3
2014-Nov-30 21:33N 51°28' E 002°10'1211.6
2014-Nov-30 20:33N 51°19' E 001°58'1312.8
2014-Nov-30 19:33N 51°09' E 001°43'1313.2
2014-Nov-30 18:32N 51°07' E 001°22'2 2.0
2014-Nov-30 17:32N 51°07' E 001°19'0 0.0
2014-Nov-30 16:29N 51°07' E 001°19'0 0.0
2014-Nov-30 15:26N 51°07' E 001°19'0 0.0
2014-Nov-30 14:29N 51°07' E 001°19'0 0.0
2014-Nov-30 13:32N 51°07' E 001°19'0 0.0
2014-Nov-30 12:29N 51°07' E 001°19'0 0.0
2014-Nov-30 11:29N 51°07' E 001°19'1 0.7
2014-Nov-30 10:29N 51°07' E 001°20'7 7.2
2014-Nov-30 09:33N 51°07' E 001°30'1010.4
2014-Nov-30 08:33N 50°57' E 001°26'3415.0
2014-Nov-30 06:17N 50°31' E 000°52'1035.9
2014-Nov-30 06:00N 50°36' E 001°06'7321.2 350 / 111013.4 5.4 10.5 8.520.0
2014-Nov-30 02:33N 50°11' W 000°42'2218.6
2014-Nov-30 01:22N 50°05' W 001°15'1518.8
2014-Nov-30 00:34N 50°00' W 001°37'1918.5
2014-Nov-29 23:34N 49°56' W 002°05'1717.2
2014-Nov-29 22:33N 49°51' W 002°31'7015.3
2014-Nov-29 18:00N 49°18' W 004°06'5516.0 050 / 161011.010.8 13.512.616.0
2014-Nov-29 14:33N 48°51' W 005°20'7814.0
2014-Nov-29 09:00N 47°42' W 006°12'5819.2 030 / 121004.710.8 15.013.6
2014-Nov-29 06:00N 46°48' W 006°42'6315.9 080 / 201000.010.8 15.512.818.0
2014-Nov-29 02:00N 45°48' W 007°12'5814.5 050 / 15997.110.8 15.514.6
2014-Nov-28 22:00N 44°54' W 007°42'235 8.4 280 / 20993.610.8 13.810.4
2014-Nov-27 18:00N 42°12' W 011°36'15112.6 180 / 40977.210.8 13.211.918.0
2014-Nov-27 06:00N 41°12' W 014°42'11516.4 270 / 16999.910.8 13.510.617.0
2014-Nov-26 23:00N 40°24' W 017°00'7515.0 330 / 401010.8 5.4 14.011.2
2014-Nov-26 18:00N 39°54' W 018°30'4515.1 320 / 501012.910.8 5.014.8 9.419.0
2014-Nov-26 15:00N 39°36' W 019°24'13214.7 340 / 501012.6 5.4 15.5 9.8
2014-Nov-26 06:00N 38°42' W 022°00'8814.6 320 / 451018.910.8 13.0 5.619.0
2014-Nov-26 00:00N 38°06' W 023°42'1022.8 280 / 541023.7 5.4 14.5 4.9
2014-Nov-25 23:33N 38°08' W 023°55'1515.2
2014-Nov-25 22:33N 38°02' W 024°12'1515.3
2014-Nov-25 21:33N 37°55' W 024°30'1615.7
2014-Nov-25 20:33N 37°49' W 024°48'814.9
2014-Nov-25 20:00N 37°42' W 024°54'921.7 270 / 301025.5 5.4 16.010.3
2014-Nov-25 19:33N 37°43' W 025°06'1616.0
2014-Nov-25 18:33N 37°40' W 025°26'1211.7
2014-Nov-25 17:33N 37°44' W 025°40'0 0.0
2014-Nov-25 16:31N 37°44' W 025°40'0 0.0
2014-Nov-25 15:31N 37°44' W 025°40'0 0.0
2014-Nov-25 14:31N 37°44' W 025°40'0 0.0
2014-Nov-25 13:31N 37°44' W 025°40'0 0.0
2014-Nov-25 12:31N 37°44' W 025°40'0 0.0
2014-Nov-25 11:31N 37°44' W 025°40'0 0.0
2014-Nov-25 10:31N 37°44' W 025°40'0 0.0
2014-Nov-25 09:31N 37°44' W 025°40'0 0.4
2014-Nov-25 08:33N 37°44' W 025°39'6 5.9
2014-Nov-25 07:33N 37°41' W 025°45'1211.7
2014-Nov-25 06:34N 37°36' W 025°59'1312.5
2014-Nov-25 05:33N 37°32' W 026°14'1212.4
2014-Nov-25 04:33N 37°27' W 026°28'1414.3
2014-Nov-25 03:33N 37°21' W 026°45'1414.4
2014-Nov-25 02:34N 37°16' W 027°01'9013.7
2014-Nov-24 20:00N 36°36' W 028°42'10114.4 010 / 141029.710.8 16.010.3
2014-Nov-24 13:00N 35°54' W 030°36'18814.5 360 / 221029.4 5.4 17.511.1
2014-Nov-24 00:00N 34°36' W 034°06'5513.8 020 / 281026.7 5.4 19.011.8
2014-Nov-23 20:00N 34°12' W 035°06'9015.0 360 / 321026.1 5.4 19.012.8
2014-Nov-23 14:00N 33°30' W 036°42'   350 / 351023.7 5.4 19.616.1
Track history (hours):
 
Tides and Currents Weather Stations Pressure Air Temp Water Temp Dewpoint Dewpoint Depression Visibility Wind Speed Wind Dir Waves Ship Positions

Saga Sapphire

Last reported at 2014-Dec-03 13:30 UTC. Time now 2014-Dec-19 04:34 UTC.
Position N 51°54' E 004°23'.
Warning: this ship's position is 15 days out of date.

Length 200 m; draft 8.3 m.

Type: Passenger vessel. MMSI: 256208000.

Date/timePositionNaut miles runAvg speedWind from/ knotsBaromVisibWave heightAir tempDewpointWater temp
2014-Dec-03 13:30N 51°54' E 004°23'0 0.0
2014-Dec-03 12:30N 51°54' E 004°23'0 0.0
2014-Dec-03 11:24N 51°54' E 004°23'0 0.0
2014-Dec-03 10:30N 51°54' E 004°23'0 0.0
2014-Dec-03 09:30N 51°54' E 004°23'0 0.0
2014-Dec-03 08:30N 51°54' E 004°23'0 0.0
2014-Dec-03 07:18N 51°54' E 004°23'0 0.0
2014-Dec-03 06:30N 51°54' E 004°23'0 0.0
2014-Dec-03 05:30N 51°54' E 004°23'0 0.0
2014-Dec-03 04:30N 51°54' E 004°23'0 0.0
2014-Dec-03 03:30N 51°54' E 004°23'0 0.0
2014-Dec-03 02:30N 51°54' E 004°23'0 0.0
2014-Dec-03 01:30N 51°54' E 004°23'0 0.0
2014-Dec-03 00:30N 51°54' E 004°23'0 0.0
2014-Dec-02 23:30N 51°54' E 004°23'0 0.0
2014-Dec-02 22:30N 51°54' E 004°23'0 0.0
2014-Dec-02 21:30N 51°54' E 004°23'0 0.0
2014-Dec-02 20:30N 51°54' E 004°23'0 0.0
2014-Dec-02 19:30N 51°54' E 004°23'0 0.0
2014-Dec-02 18:30N 51°54' E 004°23'0 0.0
2014-Dec-02 17:30N 51°54' E 004°23'0 0.0
2014-Dec-02 15:30N 51°54' E 004°23'0 0.0
2014-Dec-02 14:30N 51°54' E 004°23'0 0.0
2014-Dec-02 13:30N 51°54' E 004°23'0 0.0
2014-Dec-02 12:30N 51°54' E 004°23'0 0.0
2014-Dec-02 11:30N 51°54' E 004°23'0 0.0
2014-Dec-02 10:30N 51°54' E 004°23'0 0.0
2014-Dec-02 09:30N 51°54' E 004°23'0 0.0
2014-Dec-02 08:30N 51°54' E 004°23'0 0.0
2014-Dec-02 07:30N 51°54' E 004°23'0 0.0
2014-Dec-02 06:30N 51°54' E 004°23'0 0.0
2014-Dec-02 05:30N 51°54' E 004°23'0 0.0
2014-Dec-02 04:30N 51°54' E 004°23'0 0.0
2014-Dec-02 03:30N 51°54' E 004°23'0 0.0
2014-Dec-02 02:30N 51°54' E 004°23'0 0.0
2014-Dec-02 01:30N 51°54' E 004°23'0 0.0
2014-Dec-02 00:30N 51°54' E 004°23'0 0.0
2014-Dec-01 23:30N 51°54' E 004°23'0 0.0
2014-Dec-01 22:30N 51°54' E 004°23'0 0.0
2014-Dec-01 21:33N 51°54' E 004°23'0 0.0
2014-Dec-01 20:33N 51°54' E 004°23'0 0.0
2014-Dec-01 19:33N 51°54' E 004°23'0 0.0
2014-Dec-01 18:33N 51°54' E 004°23'0 0.0
2014-Dec-01 17:33N 51°54' E 004°23'0 0.0
2014-Dec-01 16:33N 51°54' E 004°23'0 0.0
2014-Dec-01 15:33N 51°54' E 004°23'0 0.0
2014-Dec-01 14:33N 51°54' E 004°23'0 0.0
2014-Dec-01 13:33N 51°54' E 004°23'0 0.0
2014-Dec-01 12:33N 51°54' E 004°23'0 0.0
2014-Dec-01 11:33N 51°54' E 004°23'0 0.0
2014-Dec-01 10:33N 51°54' E 004°23'0 0.0
2014-Dec-01 09:33N 51°54' E 004°23'0 0.0
2014-Dec-01 08:33N 51°54' E 004°23'0 0.2
2014-Dec-01 07:33N 51°54' E 004°23'6 6.0
2014-Dec-01 06:33N 51°56' E 004°14'1010.3
2014-Dec-01 05:33N 52°00' E 003°58'8 7.8
2014-Dec-01 04:33N 52°01' E 003°46'10 9.7
2014-Dec-01 03:33N 51°57' E 003°31'9 9.4
2014-Dec-01 02:33N 51°54' E 003°17'10 9.2
2014-Dec-01 01:27N 51°51' E 003°01'10 9.4
2014-Dec-01 00:21N 51°48' E 002°45'910.1
2014-Nov-30 23:25N 51°43' E 002°32'910.9
2014-Nov-30 22:33N 51°36' E 002°22'1111.3
2014-Nov-30 21:33N 51°28' E 002°10'1211.6
2014-Nov-30 20:33N 51°19' E 001°58'1312.8
2014-Nov-30 19:33N 51°09' E 001°43'1313.2
2014-Nov-30 18:32N 51°07' E 001°22'2 2.0
2014-Nov-30 17:32N 51°07' E 001°19'0 0.0
2014-Nov-30 16:29N 51°07' E 001°19'0 0.0
2014-Nov-30 15:26N 51°07' E 001°19'0 0.0
2014-Nov-30 14:29N 51°07' E 001°19'0 0.0
2014-Nov-30 13:32N 51°07' E 001°19'0 0.0
2014-Nov-30 12:29N 51°07' E 001°19'0 0.0
2014-Nov-30 11:29N 51°07' E 001°19'1 0.7
2014-Nov-30 10:29N 51°07' E 001°20'7 7.2
2014-Nov-30 09:33N 51°07' E 001°30'1010.4
2014-Nov-30 08:33N 50°57' E 001°26'3415.0
2014-Nov-30 06:17N 50°31' E 000°52'1035.9
2014-Nov-30 06:00N 50°36' E 001°06'7321.2 350 / 111013.4 5.4 10.5 8.520.0
2014-Nov-30 02:33N 50°11' W 000°42'2218.6
2014-Nov-30 01:22N 50°05' W 001°15'1518.8
2014-Nov-30 00:34N 50°00' W 001°37'1918.5
2014-Nov-29 23:34N 49°56' W 002°05'1717.2
2014-Nov-29 22:33N 49°51' W 002°31'7015.3
2014-Nov-29 18:00N 49°18' W 004°06'5516.0 050 / 161011.010.8 13.512.616.0
2014-Nov-29 14:33N 48°51' W 005°20'7814.0
2014-Nov-29 09:00N 47°42' W 006°12'5819.2 030 / 121004.710.8 15.013.6
2014-Nov-29 06:00N 46°48' W 006°42'6315.9 080 / 201000.010.8 15.512.818.0
2014-Nov-29 02:00N 45°48' W 007°12'5814.5 050 / 15997.110.8 15.514.6
2014-Nov-28 22:00N 44°54' W 007°42'235 8.4 280 / 20993.610.8 13.810.4
2014-Nov-27 18:00N 42°12' W 011°36'15112.6 180 / 40977.210.8 13.211.918.0
2014-Nov-27 06:00N 41°12' W 014°42'11516.4 270 / 16999.910.8 13.510.617.0
2014-Nov-26 23:00N 40°24' W 017°00'7515.0 330 / 401010.8 5.4 14.011.2
2014-Nov-26 18:00N 39°54' W 018°30'4515.1 320 / 501012.910.8 5.014.8 9.419.0
2014-Nov-26 15:00N 39°36' W 019°24'13214.7 340 / 501012.6 5.4 15.5 9.8
2014-Nov-26 06:00N 38°42' W 022°00'8814.6 320 / 451018.910.8 13.0 5.619.0
2014-Nov-26 00:00N 38°06' W 023°42'1022.8 280 / 541023.7 5.4 14.5 4.9
2014-Nov-25 23:33N 38°08' W 023°55'1515.2
2014-Nov-25 22:33N 38°02' W 024°12'1515.3
2014-Nov-25 21:33N 37°55' W 024°30'1615.7
2014-Nov-25 20:33N 37°49' W 024°48'814.9
2014-Nov-25 20:00N 37°42' W 024°54'921.7 270 / 301025.5 5.4 16.010.3
2014-Nov-25 19:33N 37°43' W 025°06'1616.0
2014-Nov-25 18:33N 37°40' W 025°26'1211.7
2014-Nov-25 17:33N 37°44' W 025°40'0 0.0
2014-Nov-25 16:31N 37°44' W 025°40'0 0.0
2014-Nov-25 15:31N 37°44' W 025°40'0 0.0
2014-Nov-25 14:31N 37°44' W 025°40'0 0.0
2014-Nov-25 13:31N 37°44' W 025°40'0 0.0
2014-Nov-25 12:31N 37°44' W 025°40'0 0.0
2014-Nov-25 11:31N 37°44' W 025°40'0 0.0
2014-Nov-25 10:31N 37°44' W 025°40'0 0.0
2014-Nov-25 09:31N 37°44' W 025°40'0 0.4
2014-Nov-25 08:33N 37°44' W 025°39'6 5.9
2014-Nov-25 07:33N 37°41' W 025°45'1211.7
2014-Nov-25 06:34N 37°36' W 025°59'1312.5
2014-Nov-25 05:33N 37°32' W 026°14'1212.4
2014-Nov-25 04:33N 37°27' W 026°28'1414.3
2014-Nov-25 03:33N 37°21' W 026°45'1414.4
2014-Nov-25 02:34N 37°16' W 027°01'9013.7
2014-Nov-24 20:00N 36°36' W 028°42'10114.4 010 / 141029.710.8 16.010.3
2014-Nov-24 13:00N 35°54' W 030°36'18814.5 360 / 221029.4 5.4 17.511.1
2014-Nov-24 00:00N 34°36' W 034°06'5513.8 020 / 281026.7 5.4 19.011.8
2014-Nov-23 20:00N 34°12' W 035°06'9015.0 360 / 321026.1 5.4 19.012.8
2014-Nov-23 14:00N 33°30' W 036°42'   350 / 351023.7 5.4 19.616.1

Dump ship's entire track history